sensor_id;sensor_type;location;lat;lon;timestamp;pressure;altitude;pressure_sealevel;temperature;humidity
5872;BME280;2962;51.312;7.378;2023-03-03T00:00:42;97946.31;;;-1.22;100.00
5872;BME280;2962;51.312;7.378;2023-03-03T00:03:09;97962.13;;;-1.26;100.00
5872;BME280;2962;51.312;7.378;2023-03-03T00:05:36;97944.50;;;-1.32;100.00
5872;BME280;2962;51.312;7.378;2023-03-03T00:08:02;97950.88;;;-1.23;100.00
5872;BME280;2962;51.312;7.378;2023-03-03T00:10:28;97951.25;;;-1.39;100.00
5872;BME280;2962;51.312;7.378;2023-03-03T00:12:54;97954.09;;;-1.26;100.00
5872;BME280;2962;51.312;7.378;2023-03-03T00:15:22;97959.69;;;-1.22;100.00
5872;BME280;2962;51.312;7.378;2023-03-03T00:17:47;97950.16;;;-1.33;100.00
5872;BME280;2962;51.312;7.378;2023-03-03T00:23:18;97961.88;;;-1.29;100.00
5872;BME280;2962;51.312;7.378;2023-03-03T00:25:45;97961.94;;;-1.39;100.00
5872;BME280;2962;51.312;7.378;2023-03-03T00:28:23;97965.94;;;-1.37;100.00
5872;BME280;2962;51.312;7.378;2023-03-03T00:30:51;97954.25;;;-1.46;100.00
5872;BME280;2962;51.312;7.378;2023-03-03T00:33:31;97966.25;;;-1.43;100.00
5872;BME280;2962;51.312;7.378;2023-03-03T00:36:23;97951.13;;;-1.63;100.00
5872;BME280;2962;51.312;7.378;2023-03-03T00:38:52;97963.16;;;-1.61;100.00
5872;BME280;2962;51.312;7.378;2023-03-03T00:41:26;97960.19;;;-1.59;100.00
5872;BME280;2962;51.312;7.378;2023-03-03T00:43:52;97961.00;;;-1.59;100.00
5872;BME280;2962;51.312;7.378;2023-03-03T00:46:22;97963.66;;;-1.54;100.00
5872;BME280;2962;51.312;7.378;2023-03-03T00:48:49;97972.47;;;-1.53;100.00
5872;BME280;2962;51.312;7.378;2023-03-03T00:51:31;97973.81;;;-1.56;100.00
5872;BME280;2962;51.312;7.378;2023-03-03T00:53:58;97960.97;;;-1.54;100.00
5872;BME280;2962;51.312;7.378;2023-03-03T00:56:24;97976.41;;;-1.45;100.00
5872;BME280;2962;51.312;7.378;2023-03-03T00:58:49;97967.13;;;-1.53;100.00
5872;BME280;2962;51.312;7.378;2023-03-03T01:01:16;97971.66;;;-1.59;100.00
5872;BME280;2962;51.312;7.378;2023-03-03T01:03:42;97971.72;;;-1.64;100.00
5872;BME280;2962;51.312;7.378;2023-03-03T01:06:08;97974.09;;;-1.57;100.00
5872;BME280;2962;51.312;7.378;2023-03-03T01:08:34;97979.19;;;-1.66;100.00
5872;BME280;2962;51.312;7.378;2023-03-03T01:11:04;97972.88;;;-1.80;100.00
5872;BME280;2962;51.312;7.378;2023-03-03T01:13:33;97964.56;;;-1.79;100.00
5872;BME280;2962;51.312;7.378;2023-03-03T01:16:00;97960.56;;;-1.81;100.00
5872;BME280;2962;51.312;7.378;2023-03-03T01:18:26;97966.44;;;-1.79;100.00
5872;BME280;2962;51.312;7.378;2023-03-03T01:20:52;97957.97;;;-1.91;100.00
5872;BME280;2962;51.312;7.378;2023-03-03T01:23:17;97960.31;;;-1.85;100.00
5872;BME280;2962;51.312;7.378;2023-03-03T01:25:42;97948.91;;;-1.95;100.00
5872;BME280;2962;51.312;7.378;2023-03-03T01:28:08;97972.59;;;-1.79;100.00
5872;BME280;2962;51.312;7.378;2023-03-03T01:30:34;97968.84;;;-1.78;100.00
5872;BME280;2962;51.312;7.378;2023-03-03T01:32:59;97960.56;;;-1.81;100.00
5872;BME280;2962;51.312;7.378;2023-03-03T01:35:25;97971.28;;;-1.86;100.00
5872;BME280;2962;51.312;7.378;2023-03-03T01:37:50;97961.22;;;-2.00;100.00
5872;BME280;2962;51.312;7.378;2023-03-03T01:40:20;97969.41;;;-1.86;100.00
5872;BME280;2962;51.312;7.378;2023-03-03T01:42:45;97951.53;;;-1.90;100.00
5872;BME280;2962;51.312;7.378;2023-03-03T01:45:14;97970.13;;;-1.70;100.00
5872;BME280;2962;51.312;7.378;2023-03-03T01:47:44;97967.56;;;-1.90;100.00
5872;BME280;2962;51.312;7.378;2023-03-03T01:50:14;97977.16;;;-1.89;100.00
5872;BME280;2962;51.312;7.378;2023-03-03T01:52:44;97961.66;;;-1.82;100.00
5872;BME280;2962;51.312;7.378;2023-03-03T01:55:24;97966.97;;;-1.77;100.00
5872;BME280;2962;51.312;7.378;2023-03-03T01:58:20;97973.59;;;-1.69;100.00
5872;BME280;2962;51.312;7.378;2023-03-03T02:00:52;97973.66;;;-1.80;100.00
5872;BME280;2962;51.312;7.378;2023-03-03T02:03:20;97965.41;;;-1.83;100.00
5872;BME280;2962;51.312;7.378;2023-03-03T02:05:47;97963.75;;;-1.74;100.00
5872;BME280;2962;51.312;7.378;2023-03-03T02:08:17;97954.13;;;-1.75;100.00
5872;BME280;2962;51.312;7.378;2023-03-03T02:10:46;97964.78;;;-1.70;100.00
5872;BME280;2962;51.312;7.378;2023-03-03T02:13:12;97969.84;;;-1.63;100.00
5872;BME280;2962;51.312;7.378;2023-03-03T02:15:38;97973.31;;;-1.63;100.00
5872;BME280;2962;51.312;7.378;2023-03-03T02:18:08;97972.25;;;-1.67;100.00
5872;BME280;2962;51.312;7.378;2023-03-03T02:20:57;97969.34;;;-1.70;100.00
5872;BME280;2962;51.312;7.378;2023-03-03T02:28:23;97967.75;;;-1.72;100.00
5872;BME280;2962;51.312;7.378;2023-03-03T02:30:54;97958.94;;;-1.72;100.00
5872;BME280;2962;51.312;7.378;2023-03-03T02:33:19;97976.50;;;-1.61;100.00
5872;BME280;2962;51.312;7.378;2023-03-03T02:35:44;97973.59;;;-1.64;100.00
5872;BME280;2962;51.312;7.378;2023-03-03T02:38:28;97976.81;;;-1.67;100.00
5872;BME280;2962;51.312;7.378;2023-03-03T02:41:17;97968.16;;;-1.54;100.00
5872;BME280;2962;51.312;7.378;2023-03-03T02:43:50;97960.53;;;-1.71;100.00
5872;BME280;2962;51.312;7.378;2023-03-03T02:46:19;97964.25;;;-1.67;100.00
5872;BME280;2962;51.312;7.378;2023-03-03T02:48:45;97951.41;;;-1.65;100.00
5872;BME280;2962;51.312;7.378;2023-03-03T02:51:10;97963.50;;;-1.73;100.00
5872;BME280;2962;51.312;7.378;2023-03-03T02:53:35;97970.69;;;-1.73;100.00
5872;BME280;2962;51.312;7.378;2023-03-03T02:56:00;97982.47;;;-1.79;100.00
5872;BME280;2962;51.312;7.378;2023-03-03T02:58:28;97977.09;;;-1.74;100.00
5872;BME280;2962;51.312;7.378;2023-03-03T03:00:53;97964.13;;;-1.96;100.00
5872;BME280;2962;51.312;7.378;2023-03-03T03:03:19;97974.50;;;-1.89;100.00
5872;BME280;2962;51.312;7.378;2023-03-03T03:05:44;97983.56;;;-1.85;100.00
5872;BME280;2962;51.312;7.378;2023-03-03T03:08:10;97978.00;;;-1.94;100.00
5872;BME280;2962;51.312;7.378;2023-03-03T03:10:35;97979.38;;;-2.02;100.00
5872;BME280;2962;51.312;7.378;2023-03-03T03:13:00;97978.28;;;-1.95;100.00
5872;BME280;2962;51.312;7.378;2023-03-03T03:15:26;97971.31;;;-1.97;100.00
5872;BME280;2962;51.312;7.378;2023-03-03T03:17:51;97979.59;;;-1.88;100.00
5872;BME280;2962;51.312;7.378;2023-03-03T03:20:16;97981.94;;;-1.76;100.00
5872;BME280;2962;51.312;7.378;2023-03-03T03:22:42;97991.00;;;-1.77;100.00
5872;BME280;2962;51.312;7.378;2023-03-03T03:25:07;97986.50;;;-1.87;100.00
5872;BME280;2962;51.312;7.378;2023-03-03T03:27:33;97977.72;;;-1.87;100.00
5872;BME280;2962;51.312;7.378;2023-03-03T03:29:58;97983.63;;;-1.95;100.00
5872;BME280;2962;51.312;7.378;2023-03-03T03:32:23;97989.44;;;-1.88;100.00
5872;BME280;2962;51.312;7.378;2023-03-03T03:34:49;97989.41;;;-1.78;100.00
5872;BME280;2962;51.312;7.378;2023-03-03T03:37:14;97983.03;;;-1.82;100.00
5872;BME280;2962;51.312;7.378;2023-03-03T03:39:39;98000.88;;;-1.78;100.00
5872;BME280;2962;51.312;7.378;2023-03-03T03:42:05;97990.47;;;-1.74;100.00
5872;BME280;2962;51.312;7.378;2023-03-03T03:44:30;97995.03;;;-1.80;100.00
5872;BME280;2962;51.312;7.378;2023-03-03T03:46:55;97986.78;;;-1.83;100.00
5872;BME280;2962;51.312;7.378;2023-03-03T03:49:20;97957.97;;;-1.97;100.00
5872;BME280;2962;51.312;7.378;2023-03-03T03:51:46;97986.47;;;-1.77;100.00
5872;BME280;2962;51.312;7.378;2023-03-03T03:54:11;97994.72;;;-1.73;100.00
5872;BME280;2962;51.312;7.378;2023-03-03T03:56:36;97984.69;;;-1.91;100.00
5872;BME280;2962;51.312;7.378;2023-03-03T03:59:02;97989.44;;;-1.88;100.00
5872;BME280;2962;51.312;7.378;2023-03-03T04:01:27;97985.22;;;-1.94;100.00
5872;BME280;2962;51.312;7.378;2023-03-03T04:03:52;97997.22;;;-1.97;100.00
5872;BME280;2962;51.312;7.378;2023-03-03T04:06:18;97985.78;;;-2.03;100.00
5872;BME280;2962;51.312;7.378;2023-03-03T04:08:43;97991.94;;;-2.07;100.00
5872;BME280;2962;51.312;7.378;2023-03-03T04:11:08;97991.66;;;-2.06;100.00
5872;BME280;2962;51.312;7.378;2023-03-03T04:13:34;97992.75;;;-2.07;100.00
5872;BME280;2962;51.312;7.378;2023-03-03T04:16:00;97995.63;;;-1.93;100.00
5872;BME280;2962;51.312;7.378;2023-03-03T04:18:25;97993.78;;;-2.03;100.00
5872;BME280;2962;51.312;7.378;2023-03-03T04:20:51;98005.53;;;-1.99;100.00
5872;BME280;2962;51.312;7.378;2023-03-03T04:23:18;97997.50;;;-1.99;100.00
5872;BME280;2962;51.312;7.378;2023-03-03T04:25:48;98009.75;;;-1.92;100.00
5872;BME280;2962;51.312;7.378;2023-03-03T04:28:14;97995.94;;;-2.00;100.00
5872;BME280;2962;51.312;7.378;2023-03-03T04:30:40;98006.53;;;-1.89;100.00
5872;BME280;2962;51.312;7.378;2023-03-03T04:33:05;97997.22;;;-1.92;100.00
5872;BME280;2962;51.312;7.378;2023-03-03T04:35:31;98013.22;;;-1.87;100.00
5872;BME280;2962;51.312;7.378;2023-03-03T04:37:56;98003.09;;;-1.95;100.00
5872;BME280;2962;51.312;7.378;2023-03-03T04:40:21;98004.41;;;-1.92;100.00
5872;BME280;2962;51.312;7.378;2023-03-03T04:42:47;98003.63;;;-1.88;100.00
5872;BME280;2962;51.312;7.378;2023-03-03T04:45:12;98003.38;;;-1.97;100.00
5872;BME280;2962;51.312;7.378;2023-03-03T04:47:37;98003.91;;;-1.94;100.00
5872;BME280;2962;51.312;7.378;2023-03-03T04:50:03;98010.31;;;-1.95;100.00
5872;BME280;2962;51.312;7.378;2023-03-03T04:52:28;98000.97;;;-1.98;100.00
5872;BME280;2962;51.312;7.378;2023-03-03T04:54:54;98000.69;;;-1.91;100.00
5872;BME280;2962;51.312;7.378;2023-03-03T04:57:19;98008.72;;;-1.97;100.00
5872;BME280;2962;51.312;7.378;2023-03-03T04:59:45;98017.53;;;-2.01;100.00
5872;BME280;2962;51.312;7.378;2023-03-03T05:02:10;98011.44;;;-2.07;100.00
5872;BME280;2962;51.312;7.378;2023-03-03T05:04:37;98007.16;;;-2.13;100.00
5872;BME280;2962;51.312;7.378;2023-03-03T05:07:02;98013.84;;;-2.10;100.00
5872;BME280;2962;51.312;7.378;2023-03-03T05:09:28;98022.38;;;-2.08;100.00
5872;BME280;2962;51.312;7.378;2023-03-03T05:11:53;98013.81;;;-2.05;100.00
5872;BME280;2962;51.312;7.378;2023-03-03T05:14:18;98010.34;;;-2.06;100.00
5872;BME280;2962;51.312;7.378;2023-03-03T05:16:43;97998.06;;;-2.12;100.00
5872;BME280;2962;51.312;7.378;2023-03-03T05:19:09;98008.72;;;-2.02;100.00
5872;BME280;2962;51.312;7.378;2023-03-03T05:21:34;98010.59;;;-2.02;100.00
5872;BME280;2962;51.312;7.378;2023-03-03T05:24:00;98003.94;;;-2.00;100.00
5872;BME280;2962;51.312;7.378;2023-03-03T05:26:25;98000.72;;;-2.02;100.00
5872;BME280;2962;51.312;7.378;2023-03-03T05:28:50;98011.41;;;-2.02;100.00
5872;BME280;2962;51.312;7.378;2023-03-03T05:31:15;98011.94;;;-2.00;100.00
5872;BME280;2962;51.312;7.378;2023-03-03T05:33:44;97997.53;;;-2.04;100.00
5872;BME280;2962;51.312;7.378;2023-03-03T05:36:09;98002.28;;;-1.90;100.00
5872;BME280;2962;51.312;7.378;2023-03-03T05:38:34;98006.06;;;-2.02;100.00
5872;BME280;2962;51.312;7.378;2023-03-03T05:40:59;98005.00;;;-2.06;100.00
5872;BME280;2962;51.312;7.378;2023-03-03T05:43:25;98012.72;;;-1.94;100.00
5872;BME280;2962;51.312;7.378;2023-03-03T05:45:54;98008.44;;;-2.00;100.00
5872;BME280;2962;51.312;7.378;2023-03-03T05:48:20;98013.88;;;-2.21;100.00
5872;BME280;2962;51.312;7.378;2023-03-03T05:50:46;98008.78;;;-2.17;100.00
5872;BME280;2962;51.312;7.378;2023-03-03T05:53:11;98012.00;;;-2.20;100.00
5872;BME280;2962;51.312;7.378;2023-03-03T05:55:36;98015.44;;;-2.19;100.00
5872;BME280;2962;51.312;7.378;2023-03-03T05:58:01;98013.84;;;-2.10;100.00
5872;BME280;2962;51.312;7.378;2023-03-03T06:00:27;98018.09;;;-2.09;100.00
5872;BME280;2962;51.312;7.378;2023-03-03T06:02:52;98018.69;;;-2.23;100.00
5872;BME280;2962;51.312;7.378;2023-03-03T06:05:17;98022.66;;;-2.20;100.00
5872;BME280;2962;51.312;7.378;2023-03-03T06:07:43;98032.53;;;-2.15;100.00
5872;BME280;2962;51.312;7.378;2023-03-03T06:10:09;98033.03;;;-2.08;100.00
5872;BME280;2962;51.312;7.378;2023-03-03T06:12:34;98038.38;;;-1.98;100.00
5872;BME280;2962;51.312;7.378;2023-03-03T06:15:00;98036.44;;;-1.82;100.00
5872;BME280;2962;51.312;7.378;2023-03-03T06:17:26;98047.16;;;-1.87;100.00
5872;BME280;2962;51.312;7.378;2023-03-03T06:19:51;98047.13;;;-1.82;100.00
5872;BME280;2962;51.312;7.378;2023-03-03T06:22:16;98041.25;;;-1.79;100.00
5872;BME280;2962;51.312;7.378;2023-03-03T06:24:42;98051.13;;;-1.80;100.00
5872;BME280;2962;51.312;7.378;2023-03-03T06:27:08;98060.19;;;-1.81;100.00
5872;BME280;2962;51.312;7.378;2023-03-03T06:29:33;98059.72;;;-1.88;100.00
5872;BME280;2962;51.312;7.378;2023-03-03T06:31:58;98061.81;;;-1.85;100.00
5872;BME280;2962;51.312;7.378;2023-03-03T06:34:23;98062.06;;;-1.81;100.00
5872;BME280;2962;51.312;7.378;2023-03-03T06:36:49;98062.34;;;-1.83;100.00
5872;BME280;2962;51.312;7.378;2023-03-03T06:39:14;98070.06;;;-1.81;100.00
5872;BME280;2962;51.312;7.378;2023-03-03T06:41:39;98066.38;;;-1.90;100.00
5872;BME280;2962;51.312;7.378;2023-03-03T06:44:04;98055.16;;;-1.87;100.00
5872;BME280;2962;51.312;7.378;2023-03-03T06:46:30;98065.25;;;-1.74;100.00
5872;BME280;2962;51.312;7.378;2023-03-03T06:48:55;98063.13;;;-1.77;100.00
5872;BME280;2962;51.312;7.378;2023-03-03T06:51:27;98067.69;;;-1.83;100.00
5872;BME280;2962;51.312;7.378;2023-03-03T06:53:56;98057.81;;;-1.82;100.00
5872;BME280;2962;51.312;7.378;2023-03-03T06:56:26;98076.44;;;-1.67;100.00
5872;BME280;2962;51.312;7.378;2023-03-03T06:58:55;98078.59;;;-1.69;100.00
5872;BME280;2962;51.312;7.378;2023-03-03T07:01:22;98079.91;;;-1.61;100.00
5872;BME280;2962;51.312;7.378;2023-03-03T07:03:47;98083.91;;;-1.54;100.00
5872;BME280;2962;51.312;7.378;2023-03-03T07:06:20;98084.41;;;-1.52;100.00
5872;BME280;2962;51.312;7.378;2023-03-03T07:08:47;98079.03;;;-1.41;100.00
5872;BME280;2962;51.312;7.378;2023-03-03T07:11:16;98083.84;;;-1.49;100.00
5872;BME280;2962;51.312;7.378;2023-03-03T07:13:46;98081.22;;;-1.59;100.00
5872;BME280;2962;51.312;7.378;2023-03-03T07:16:13;98075.38;;;-1.61;100.00
5872;BME280;2962;51.312;7.378;2023-03-03T07:18:54;98079.81;;;-1.41;100.00
5872;BME280;2962;51.312;7.378;2023-03-03T07:21:22;98079.59;;;-1.50;100.00
5872;BME280;2962;51.312;7.378;2023-03-03T07:23:51;98090.25;;;-1.44;100.00
5872;BME280;2962;51.312;7.378;2023-03-03T07:26:24;98090.75;;;-1.37;100.00
5872;BME280;2962;51.312;7.378;2023-03-03T07:31:33;98079.53;;;-1.39;100.00
5872;BME280;2962;51.312;7.378;2023-03-03T07:34:00;98092.84;;;-1.29;100.00
5872;BME280;2962;51.312;7.378;2023-03-03T07:36:34;98089.31;;;-1.19;100.00
5872;BME280;2962;51.312;7.378;2023-03-03T07:39:03;98099.22;;;-1.15;100.00
5872;BME280;2962;51.312;7.378;2023-03-03T07:41:41;98102.13;;;-1.11;100.00
5872;BME280;2962;51.312;7.378;2023-03-03T07:44:21;98108.84;;;-1.19;100.00
5872;BME280;2962;51.312;7.378;2023-03-03T07:46:50;98106.44;;;-1.20;100.00
5872;BME280;2962;51.312;7.378;2023-03-03T07:49:23;98120.97;;;-1.37;100.00
5872;BME280;2962;51.312;7.378;2023-03-03T07:51:56;98119.91;;;-1.41;100.00
5872;BME280;2962;51.312;7.378;2023-03-03T07:54:38;98126.25;;;-1.21;100.00
5872;BME280;2962;51.312;7.378;2023-03-03T08:05:29;98130.72;;;-1.07;100.00
5872;BME280;2962;51.312;7.378;2023-03-03T08:08:09;98125.88;;;-1.05;100.00
5872;BME280;2962;51.312;7.378;2023-03-03T08:10:43;98132.28;;;-1.01;100.00
5872;BME280;2962;51.312;7.378;2023-03-03T08:13:25;98132.59;;;-1.07;100.00
5872;BME280;2962;51.312;7.378;2023-03-03T08:16:02;98137.19;;;-1.18;100.00
5872;BME280;2962;51.312;7.378;2023-03-03T08:21:12;98137.19;;;-1.18;100.00
5872;BME280;2962;51.312;7.378;2023-03-03T08:23:37;98139.81;;;-1.13;100.00
5872;BME280;2962;51.312;7.378;2023-03-03T08:26:03;98140.59;;;-1.02;100.00
5872;BME280;2962;51.312;7.378;2023-03-03T08:28:28;98145.34;;;-0.94;100.00
5872;BME280;2962;51.312;7.378;2023-03-03T08:30:54;98147.19;;;-0.84;100.00
5872;BME280;2962;51.312;7.378;2023-03-03T08:33:19;98150.38;;;-0.82;100.00
5872;BME280;2962;51.312;7.378;2023-03-03T08:35:45;98149.03;;;-0.80;100.00
5872;BME280;2962;51.312;7.378;2023-03-03T08:38:12;98154.50;;;-1.05;100.00
5872;BME280;2962;51.312;7.378;2023-03-03T08:40:38;98139.75;;;-0.98;100.00
5872;BME280;2962;51.312;7.378;2023-03-03T08:43:03;98156.53;;;-0.87;100.00
5872;BME280;2962;51.312;7.378;2023-03-03T08:45:29;98148.81;;;-0.93;100.00
5872;BME280;2962;51.312;7.378;2023-03-03T08:47:55;98157.97;;;-1.00;100.00
5872;BME280;2962;51.312;7.378;2023-03-03T08:50:20;98153.91;;;-0.92;100.00
5872;BME280;2962;51.312;7.378;2023-03-03T08:52:46;98152.75;;;-0.76;100.00
5872;BME280;2962;51.312;7.378;2023-03-03T08:55:12;98170.66;;;-0.76;100.00
5872;BME280;2962;51.312;7.378;2023-03-03T08:57:37;98160.25;;;-0.83;100.00
5872;BME280;2962;51.312;7.378;2023-03-03T09:00:05;98155.16;;;-0.79;100.00
5872;BME280;2962;51.312;7.378;2023-03-03T09:02:31;98161.09;;;-0.92;100.00
5872;BME280;2962;51.312;7.378;2023-03-03T09:04:56;98159.81;;;-1.00;100.00
5872;BME280;2962;51.312;7.378;2023-03-03T09:07:21;98167.03;;;-0.95;100.00
5872;BME280;2962;51.312;7.378;2023-03-03T09:09:46;98162.41;;;-0.85;100.00
5872;BME280;2962;51.312;7.378;2023-03-03T09:15:24;98181.66;;;-0.83;100.00
5872;BME280;2962;51.312;7.378;2023-03-03T09:17:50;98168.66;;;-1.00;100.00
5872;BME280;2962;51.312;7.378;2023-03-03T09:20:33;98172.31;;;-0.85;100.00
5872;BME280;2962;51.312;7.378;2023-03-03T09:23:20;98186.41;;;-0.69;100.00
5872;BME280;2962;51.312;7.378;2023-03-03T09:25:49;98185.34;;;-0.74;100.00
5872;BME280;2962;51.312;7.378;2023-03-03T09:28:22;98183.22;;;-0.71;100.00
5872;BME280;2962;51.312;7.378;2023-03-03T09:30:49;98175.97;;;-0.71;100.00
5872;BME280;2962;51.312;7.378;2023-03-03T09:33:42;98176.78;;;-0.65;100.00
5872;BME280;2962;51.312;7.378;2023-03-03T09:36:27;98168.50;;;-0.69;100.00
5872;BME280;2962;51.312;7.378;2023-03-03T09:38:54;98190.03;;;-0.50;100.00
5872;BME280;2962;51.312;7.378;2023-03-03T09:41:48;98192.69;;;-0.45;100.00
5872;BME280;2962;51.312;7.378;2023-03-03T09:49:30;98197.19;;;-0.40;100.00
5872;BME280;2962;51.312;7.378;2023-03-03T09:52:08;98201.91;;;-0.22;100.00
5872;BME280;2962;51.312;7.378;2023-03-03T10:03:24;98205.56;;;-0.13;100.00
5872;BME280;2962;51.312;7.378;2023-03-03T10:06:07;98202.16;;;-0.23;100.00
5872;BME280;2962;51.312;7.378;2023-03-03T10:19:38;98223.16;;;-0.02;100.00
5872;BME280;2962;51.312;7.378;2023-03-03T10:22:38;98219.00;;;0.16;100.00
5872;BME280;2962;51.312;7.378;2023-03-03T10:27:57;98228.47;;;0.04;100.00
5872;BME280;2962;51.312;7.378;2023-03-03T10:30:30;98225.34;;;-0.04;100.00
5872;BME280;2962;51.312;7.378;2023-03-03T10:33:08;98223.22;;;-0.12;100.00
5872;BME280;2962;51.312;7.378;2023-03-03T10:35:45;98226.03;;;0.07;100.00
5872;BME280;2962;51.312;7.378;2023-03-03T10:38:39;98223.59;;;0.11;100.00
5872;BME280;2962;51.312;7.378;2023-03-03T10:46:48;98225.63;;;0.24;100.00
5872;BME280;2962;51.312;7.378;2023-03-03T10:52:25;98225.34;;;0.55;100.00
5872;BME280;2962;51.312;7.378;2023-03-03T10:55:04;98220.13;;;0.39;100.00
5872;BME280;2962;51.312;7.378;2023-03-03T11:00:25;98222.53;;;0.70;100.00
5872;BME280;2962;51.312;7.378;2023-03-03T11:06:01;98236.44;;;0.96;100.00
5872;BME280;2962;51.312;7.378;2023-03-03T11:08:35;98221.72;;;0.93;100.00
5872;BME280;2962;51.312;7.378;2023-03-03T11:11:18;98220.56;;;1.00;100.00
5872;BME280;2962;51.312;7.378;2023-03-03T11:13:55;98222.22;;;1.19;100.00
5872;BME280;2962;51.312;7.378;2023-03-03T11:27:44;98221.56;;;1.04;100.00
5872;BME280;2962;51.312;7.378;2023-03-03T11:30:33;98210.53;;;0.86;100.00
5872;BME280;2962;51.312;7.378;2023-03-03T11:33:04;98225.88;;;1.05;100.00
5872;BME280;2962;51.312;7.378;2023-03-03T11:38:08;98204.91;;;1.07;100.00
5872;BME280;2962;51.312;7.378;2023-03-03T11:40:44;98209.06;;;1.18;100.00
5872;BME280;2962;51.312;7.378;2023-03-03T11:43:35;98207.56;;;1.12;100.00
5872;BME280;2962;51.312;7.378;2023-03-03T11:46:08;98206.53;;;1.08;100.00
5872;BME280;2962;51.312;7.378;2023-03-03T11:51:16;98207.84;;;1.29;100.00
5872;BME280;2962;51.312;7.378;2023-03-03T11:53:57;98218.66;;;1.24;100.00
5872;BME280;2962;51.312;7.378;2023-03-03T11:56:28;98209.59;;;1.20;100.00
5872;BME280;2962;51.312;7.378;2023-03-03T11:59:13;98209.88;;;1.37;100.00
5872;BME280;2962;51.312;7.378;2023-03-03T12:01:54;98193.78;;;1.37;100.00
5872;BME280;2962;51.312;7.378;2023-03-03T12:04:40;98201.03;;;1.37;100.00
5872;BME280;2962;51.312;7.378;2023-03-03T12:10:13;98191.19;;;1.70;100.00
5872;BME280;2962;51.312;7.378;2023-03-03T12:13:02;98192.63;;;1.81;100.00
5872;BME280;2962;51.312;7.378;2023-03-03T12:15:45;98190.59;;;1.73;100.00
5872;BME280;2962;51.312;7.378;2023-03-03T12:18:31;98179.75;;;1.78;100.00
5872;BME280;2962;51.312;7.378;2023-03-03T12:21:09;98178.00;;;2.20;100.00
5872;BME280;2962;51.312;7.378;2023-03-03T12:23:51;98177.25;;;2.47;100.00
5872;BME280;2962;51.312;7.378;2023-03-03T12:26:29;98174.53;;;2.33;100.00
5872;BME280;2962;51.312;7.378;2023-03-03T12:29:05;98161.81;;;2.66;100.00
5872;BME280;2962;51.312;7.378;2023-03-03T12:37:10;98169.78;;;2.11;100.00
5872;BME280;2962;51.312;7.378;2023-03-03T12:42:20;98168.47;;;1.62;100.00
5872;BME280;2962;51.312;7.378;2023-03-03T12:45:16;98170.13;;;1.39;100.00
5872;BME280;2962;51.312;7.378;2023-03-03T12:47:49;98167.66;;;1.43;100.00
5872;BME280;2962;51.312;7.378;2023-03-03T12:50:26;98172.16;;;1.48;100.00
5872;BME280;2962;51.312;7.378;2023-03-03T12:56:03;98174.25;;;1.69;100.00
5872;BME280;2962;51.312;7.378;2023-03-03T13:04:22;98175.28;;;2.06;100.00
5872;BME280;2962;51.312;7.378;2023-03-03T13:06:47;98170.56;;;2.44;100.00
5872;BME280;2962;51.312;7.378;2023-03-03T13:09:39;98169.88;;;2.94;100.00
5872;BME280;2962;51.312;7.378;2023-03-03T13:12:25;98157.88;;;3.28;100.00
5872;BME280;2962;51.312;7.378;2023-03-03T13:15:02;98159.34;;;3.70;100.00
5872;BME280;2962;51.312;7.378;2023-03-03T13:20:21;98167.03;;;4.61;100.00
5872;BME280;2962;51.312;7.378;2023-03-03T13:23:06;98164.56;;;4.82;100.00
5872;BME280;2962;51.312;7.378;2023-03-03T13:25:45;98162.25;;;4.58;100.00
5872;BME280;2962;51.312;7.378;2023-03-03T13:28:31;98169.75;;;4.70;100.00
5872;BME280;2962;51.312;7.378;2023-03-03T13:31:11;98163.59;;;4.78;100.00
5872;BME280;2962;51.312;7.378;2023-03-03T13:33:42;98166.84;;;4.58;100.00
5872;BME280;2962;51.312;7.378;2023-03-03T13:36:14;98169.81;;;4.48;100.00
5872;BME280;2962;51.312;7.378;2023-03-03T13:38:45;98155.13;;;3.78;100.00
5872;BME280;2962;51.312;7.378;2023-03-03T13:41:22;98168.94;;;3.62;100.00
5872;BME280;2962;51.312;7.378;2023-03-03T13:43:55;98163.91;;;4.46;100.00
5872;BME280;2962;51.312;7.378;2023-03-03T13:46:38;98156.78;;;4.19;100.00
5872;BME280;2962;51.312;7.378;2023-03-03T13:49:17;98160.34;;;4.28;100.00
5872;BME280;2962;51.312;7.378;2023-03-03T13:52:04;98157.88;;;3.86;100.00
5872;BME280;2962;51.312;7.378;2023-03-03T14:00:21;98149.94;;;3.09;100.00
5872;BME280;2962;51.312;7.378;2023-03-03T14:06:03;98148.88;;;2.96;100.00
5872;BME280;2962;51.312;7.378;2023-03-03T14:11:17;98133.38;;;3.74;100.00
5872;BME280;2962;51.312;7.378;2023-03-03T14:18:54;98138.28;;;4.26;100.00
5872;BME280;2962;51.312;7.378;2023-03-03T14:21:27;98144.88;;;3.66;100.00
5872;BME280;2962;51.312;7.378;2023-03-03T14:26:28;98141.66;;;4.31;100.00
5872;BME280;2962;51.312;7.378;2023-03-03T14:29:15;98137.13;;;4.49;100.00
5872;BME280;2962;51.312;7.378;2023-03-03T14:31:43;98126.63;;;3.85;100.00
5872;BME280;2962;51.312;7.378;2023-03-03T14:36:57;98135.66;;;4.83;100.00
5872;BME280;2962;51.312;7.378;2023-03-03T14:39:36;98129.38;;;4.65;100.00
5872;BME280;2962;51.312;7.378;2023-03-03T14:42:11;98128.13;;;5.28;100.00
5872;BME280;2962;51.312;7.378;2023-03-03T14:49:36;98119.28;;;6.35;100.00
5872;BME280;2962;51.312;7.378;2023-03-03T14:54:48;98110.81;;;6.46;100.00
5872;BME280;2962;51.312;7.378;2023-03-03T14:57:17;98094.19;;;6.56;100.00
5872;BME280;2962;51.312;7.378;2023-03-03T15:00:00;98105.63;;;6.62;100.00
5872;BME280;2962;51.312;7.378;2023-03-03T15:02:36;98116.84;;;7.31;100.00
5872;BME280;2962;51.312;7.378;2023-03-03T15:05:19;98110.13;;;9.23;100.00
5872;BME280;2962;51.312;7.378;2023-03-03T15:07:57;98112.97;;;10.39;100.00
5872;BME280;2962;51.312;7.378;2023-03-03T15:10:39;98106.28;;;10.99;100.00
5872;BME280;2962;51.312;7.378;2023-03-03T15:18:26;98108.19;;;11.89;100.00
5872;BME280;2962;51.312;7.378;2023-03-03T15:21:02;98114.38;;;10.96;100.00
5872;BME280;2962;51.312;7.378;2023-03-03T15:26:44;98103.94;;;8.73;100.00
5872;BME280;2962;51.312;7.378;2023-03-03T15:29:36;98105.34;;;10.00;100.00
5872;BME280;2962;51.312;7.378;2023-03-03T15:32:18;98093.63;;;10.28;100.00
5872;BME280;2962;51.312;7.378;2023-03-03T15:37:51;98089.66;;;10.41;100.00
5872;BME280;2962;51.312;7.378;2023-03-03T15:40:26;98083.50;;;10.92;100.00
5872;BME280;2962;51.312;7.378;2023-03-03T15:45:48;98092.34;;;11.79;100.00
5872;BME280;2962;51.312;7.378;2023-03-03T15:51:17;98092.47;;;10.92;100.00
5872;BME280;2962;51.312;7.378;2023-03-03T15:56:53;98091.41;;;10.34;100.00
5872;BME280;2962;51.312;7.378;2023-03-03T15:59:59;98093.69;;;9.32;100.00
5872;BME280;2962;51.312;7.378;2023-03-03T16:02:43;98085.94;;;7.66;100.00
5872;BME280;2962;51.312;7.378;2023-03-03T16:05:21;98079.72;;;8.93;100.00
5872;BME280;2962;51.312;7.378;2023-03-03T16:07:52;98092.16;;;8.82;100.00